createdAt,value
2019-04-20T00:00:09.483Z,46.66
2019-04-20T00:02:39.965Z,47.18
2019-04-20T00:05:09.953Z,47.64
2019-04-20T00:07:39.948Z,47.57
2019-04-20T00:10:15.540Z,47.74
2019-04-20T00:12:53.624Z,47.00
2019-04-20T00:15:13.380Z,47.16
2019-04-20T00:17:48.618Z,47.32
2019-04-20T00:20:20.780Z,47.88
2019-04-20T00:22:55.483Z,47.93
2019-04-20T00:26:12.411Z,47.71
2019-04-20T00:28:50.795Z,47.77
2019-04-20T00:31:19.018Z,48.29
2019-04-20T00:33:48.193Z,47.62
2019-04-20T00:36:08.869Z,47.64
2019-04-20T00:38:45.625Z,47.88
2019-04-20T00:41:15.107Z,47.81
2019-04-20T00:43:44.141Z,47.61
2019-04-20T00:46:21.894Z,47.93
2019-04-20T00:48:53.650Z,48.73
2019-04-20T00:51:35.100Z,49.06
2019-04-20T00:53:55.229Z,49.02
2019-04-20T00:56:22.506Z,49.17
2019-04-20T00:59:09.283Z,49.07
2019-04-20T01:01:43.592Z,48.79
2019-04-20T01:04:16.350Z,48.76
2019-04-20T01:07:15.208Z,48.79
2019-04-20T01:09:51.981Z,48.83
2019-04-20T01:12:26.053Z,48.99
2019-04-20T01:15:00.721Z,49.11
2019-04-20T01:17:25.221Z,49.31
2019-04-20T01:19:55.166Z,49.05
2019-04-20T01:22:28.372Z,48.94
2019-04-20T01:25:06.899Z,50.79
2019-04-20T01:27:42.323Z,50.88
2019-04-20T01:30:10.541Z,51.05
2019-04-20T01:32:50.659Z,50.00
2019-04-20T01:35:19.665Z,49.40
2019-04-20T01:37:54.623Z,49.83
2019-04-20T01:40:08.279Z,49.02
2019-04-20T01:42:38.625Z,48.70
2019-04-20T01:45:16.807Z,48.96
2019-04-20T01:47:46.203Z,49.01
2019-04-20T01:50:18.252Z,49.06
2019-04-20T01:52:53.928Z,49.06
2019-04-20T01:55:39.080Z,49.08
2019-04-20T01:58:25.531Z,49.92
2019-04-20T02:00:57.593Z,50.03
2019-04-20T02:03:43.887Z,49.70
2019-04-20T02:06:16.145Z,49.45
2019-04-20T02:08:42.190Z,49.40
2019-04-20T02:11:18.638Z,49.80
2019-04-20T02:13:49.924Z,50.04
2019-04-20T02:16:24.405Z,49.91
2019-04-20T02:19:05.325Z,50.86
2019-04-20T02:21:34.283Z,50.43
2019-04-20T02:23:57.314Z,51.06
2019-04-20T02:26:23.982Z,50.83
2019-04-20T02:29:17.532Z,50.35
2019-04-20T02:32:12.159Z,50.25
2019-04-20T02:40:35.932Z,50.67
2019-04-20T02:43:03.647Z,50.43
2019-04-20T02:45:53.362Z,50.47
2019-04-20T02:48:07.715Z,50.20
2019-04-20T02:50:28.674Z,50.34
2019-04-20T02:53:05.231Z,50.51
2019-04-20T02:55:38.201Z,50.91
2019-04-20T02:58:00.545Z,50.86
2019-04-20T03:00:29.863Z,50.17
2019-04-20T03:02:49.812Z,50.50
2019-04-20T03:05:25.633Z,50.52
2019-04-20T03:08:04.323Z,50.93
2019-04-20T03:10:43.396Z,51.10
2019-04-20T03:13:09.441Z,51.25
2019-04-20T03:15:38.227Z,51.17
2019-04-20T03:18:10.210Z,51.02
2019-04-20T03:20:43.506Z,51.13
2019-04-20T03:23:26.534Z,51.43
2019-04-20T03:25:55.940Z,51.48
2019-04-20T03:28:23.615Z,51.86
2019-04-20T03:31:36.795Z,51.77
2019-04-20T03:33:55.337Z,51.59
2019-04-20T03:36:12.139Z,51.37
2019-04-20T03:38:38.444Z,51.17
2019-04-20T03:40:59.236Z,51.58
2019-04-20T03:43:18.551Z,52.25
2019-04-20T03:45:56.039Z,52.12
2019-04-20T03:48:38.187Z,52.21
2019-04-20T03:51:14.898Z,52.17
2019-04-20T03:53:55.027Z,52.79
2019-04-20T03:56:39.014Z,52.74
2019-04-20T03:59:18.576Z,52.51
2019-04-20T04:02:24.609Z,52.81
2019-04-20T04:04:54.808Z,52.95
2019-04-20T04:07:17.966Z,52.69
2019-04-20T04:09:56.171Z,52.60
2019-04-20T04:12:49.711Z,52.45
2019-04-20T04:15:19.071Z,52.58
2019-04-20T04:17:50.340Z,53.04
2019-04-20T04:20:21.427Z,53.06
2019-04-20T04:23:11.600Z,53.06
2019-04-20T04:25:35.552Z,52.66
2019-04-20T04:28:10.579Z,52.47
2019-04-20T04:30:40.570Z,52.85
2019-04-20T04:33:41.525Z,52.54
2019-04-20T04:35:48.291Z,52.25
2019-04-20T04:38:30.111Z,52.27
2019-04-20T04:41:04.950Z,52.50
2019-04-20T04:43:30.370Z,53.58
2019-04-20T04:45:38.712Z,54.20
2019-04-20T04:48:14.704Z,54.68
2019-04-20T04:50:49.636Z,55.39
2019-04-20T04:53:24.744Z,54.26
2019-04-20T04:55:52.293Z,52.64
2019-04-20T04:58:15.257Z,52.52
2019-04-20T05:00:46.616Z,52.58
2019-04-20T05:03:35.369Z,52.37
2019-04-20T05:06:25.326Z,52.33
2019-04-20T05:08:45.340Z,52.08
2019-04-20T05:11:13.140Z,52.61
2019-04-20T05:13:50.814Z,52.13
2019-04-20T05:16:36.016Z,51.49
2019-04-20T05:19:11.883Z,50.72
2019-04-20T05:22:04.057Z,50.62
2019-04-20T05:25:07.027Z,51.04
2019-04-20T05:27:45.375Z,51.26
2019-04-20T05:29:59.621Z,51.45
2019-04-20T05:32:41.288Z,51.27
2019-04-20T05:35:21.527Z,50.93
2019-04-20T05:38:05.121Z,50.87
2019-04-20T05:40:29.308Z,51.49
2019-04-20T05:43:26.400Z,51.08
2019-04-20T05:45:47.790Z,49.88
2019-04-20T05:48:23.587Z,49.61
2019-04-20T05:51:00.017Z,49.32
2019-04-20T05:53:32.632Z,49.33
2019-04-20T05:55:59.649Z,48.94
2019-04-20T05:58:32.958Z,48.77
2019-04-20T06:01:08.961Z,48.54
2019-04-20T06:03:38.378Z,48.21
2019-04-20T06:06:08.235Z,48.29
2019-04-20T06:08:51.102Z,48.27
2019-04-20T06:11:19.237Z,47.92
2019-04-20T06:13:56.884Z,47.91
2019-04-20T06:16:45.430Z,47.38
2019-04-20T06:19:21.896Z,47.53
2019-04-20T06:22:14.923Z,46.28
2019-04-20T06:24:35.389Z,47.30
2019-04-20T06:27:04.776Z,46.96
2019-04-20T06:29:26.357Z,46.06
2019-04-20T06:32:05.150Z,45.94
2019-04-20T06:37:02.846Z,45.14
2019-04-20T06:39:44.946Z,44.43
2019-04-20T06:45:02.101Z,44.22
2019-04-20T06:47:19.929Z,43.98
2019-04-20T06:49:38.437Z,44.14
2019-04-20T06:52:32.092Z,43.60
2019-04-20T06:55:05.481Z,43.24
2019-04-20T06:57:45.357Z,42.60
2019-04-20T07:00:15.460Z,42.40
2019-04-20T07:02:52.974Z,42.01
2019-04-20T07:05:21.242Z,41.39
2019-04-20T07:07:54.780Z,40.28
2019-04-20T07:10:28.595Z,40.22
2019-04-20T07:12:49.514Z,40.79
2019-04-20T07:15:22.706Z,41.50
2019-04-20T07:18:01.804Z,40.74
2019-04-20T07:20:55.600Z,40.54
2019-04-20T07:23:26.600Z,41.08
2019-04-20T07:25:58.585Z,40.75
2019-04-20T07:28:31.299Z,40.12
2019-04-20T07:30:56.951Z,39.70
2019-04-20T07:33:33.447Z,39.56
2019-04-20T07:36:06.079Z,39.67
2019-04-20T07:41:00.021Z,39.46
2019-04-20T07:43:51.176Z,38.93
2019-04-20T07:46:21.913Z,39.15
2019-04-20T07:48:42.949Z,38.41
2019-04-20T07:51:05.861Z,38.34
2019-04-20T07:53:36.184Z,38.07
2019-04-20T07:56:17.821Z,37.87
2019-04-20T07:58:36.703Z,37.31
2019-04-20T08:01:30.214Z,37.45
2019-04-20T08:04:11.498Z,37.10
2019-04-20T08:06:46.906Z,37.12
2019-04-20T08:09:24.391Z,37.04
2019-04-20T08:12:11.811Z,37.28
2019-04-20T08:14:39.659Z,36.91
2019-04-20T08:17:29.041Z,37.46
2019-04-20T08:19:41.174Z,37.45
2019-04-20T08:22:15.575Z,36.91
2019-04-20T08:24:42.852Z,36.60
2019-04-20T08:27:05.947Z,37.74
2019-04-20T08:29:48.451Z,38.23
2019-04-20T08:32:34.661Z,37.20
2019-04-20T08:35:15.474Z,36.03
2019-04-20T08:37:41.360Z,36.41
2019-04-20T08:40:13.244Z,35.81
2019-04-20T08:43:00.555Z,36.30
2019-04-20T08:45:18.061Z,36.72
2019-04-20T08:47:54.912Z,35.50
2019-04-20T08:53:12.818Z,35.54
2019-04-20T08:55:23.593Z,35.43
2019-04-20T08:57:35.944Z,35.46
2019-04-20T09:00:09.027Z,34.57
2019-04-20T09:02:41.229Z,35.02
2019-04-20T09:05:24.855Z,35.60
2019-04-20T09:07:55.325Z,35.24
2019-04-20T09:10:38.969Z,34.23
2019-04-20T09:13:02.347Z,35.33
2019-04-20T09:15:21.599Z,35.45
2019-04-20T09:18:01.943Z,35.10
2019-04-20T09:20:42.376Z,35.31
2019-04-20T09:23:21.303Z,34.05
2019-04-20T09:28:37.127Z,33.97
2019-04-20T09:31:22.645Z,34.46
2019-04-20T09:34:07.553Z,35.11
2019-04-20T09:36:44.663Z,33.43
2019-04-20T09:39:29.525Z,33.57
2019-04-20T09:42:22.754Z,32.60
2019-04-20T09:44:55.908Z,32.40
2019-04-20T09:47:32.614Z,31.59
2019-04-20T09:50:10.873Z,31.87
2019-04-20T09:52:48.016Z,31.91
2019-04-20T09:55:14.683Z,32.23
2019-04-20T09:57:50.245Z,31.65
2019-04-20T10:00:19.311Z,30.43
2019-04-20T10:02:39.064Z,30.92
2019-04-20T10:05:09.334Z,31.17
2019-04-20T10:07:42.230Z,30.67
2019-04-20T10:10:23.906Z,30.85
2019-04-20T10:12:44.260Z,30.37
2019-04-20T10:15:19.494Z,30.74
2019-04-20T10:17:45.867Z,29.76
2019-04-20T10:20:26.997Z,30.08
2019-04-20T10:22:48.772Z,30.01
2019-04-20T10:25:18.740Z,30.29
2019-04-20T10:27:49.539Z,29.29
2019-04-20T10:30:20.736Z,28.83
2019-04-20T10:32:53.837Z,28.13
2019-04-20T10:35:23.341Z,28.91
2019-04-20T10:37:59.698Z,28.64
2019-04-20T10:40:44.973Z,28.83
2019-04-20T10:43:03.169Z,28.58
2019-04-20T10:45:33.175Z,27.89
2019-04-20T10:48:03.428Z,27.89
2019-04-20T10:50:34.517Z,26.69
2019-04-20T10:53:05.769Z,27.74
2019-04-20T10:55:35.810Z,26.49
2019-04-20T10:58:07.206Z,28.57
2019-04-20T11:00:44.269Z,26.98
2019-04-20T11:03:17.823Z,28.13
2019-04-20T11:05:49.131Z,26.58
2019-04-20T11:08:20.346Z,26.79
2019-04-20T11:11:02.379Z,26.92
2019-04-20T11:13:23.441Z,27.96
2019-04-20T11:15:54.681Z,28.28
2019-04-20T11:18:25.090Z,27.60
2019-04-20T11:20:55.396Z,26.66
2019-04-20T11:23:26.606Z,26.18
2019-04-20T11:25:58.073Z,27.07
2019-04-20T11:28:28.211Z,26.08
2019-04-20T11:30:58.543Z,26.08
2019-04-20T11:33:29.939Z,25.28
2019-04-20T11:36:01.129Z,25.62
2019-04-20T11:38:31.191Z,25.83
2019-04-20T11:41:10.347Z,25.20
2019-04-20T11:43:33.635Z,25.48
2019-04-20T11:46:04.801Z,25.68
2019-04-20T11:48:34.961Z,25.22
2019-04-20T11:51:05.536Z,24.88
2019-04-20T11:53:36.307Z,25.63
2019-04-20T11:56:13.517Z,24.72
2019-04-20T11:58:38.823Z,24.69
2019-04-20T12:01:29.001Z,25.37
2019-04-20T12:04:04.132Z,24.90
2019-04-20T12:06:28.900Z,24.51
2019-04-20T12:08:59.307Z,25.12
2019-04-20T12:11:38.408Z,24.88
2019-04-20T12:14:00.897Z,23.53
2019-04-20T12:16:31.968Z,24.66
2019-04-20T12:19:02.280Z,23.43
2019-04-20T12:21:32.745Z,23.58
2019-04-20T12:24:04.419Z,23.94
2019-04-20T12:26:34.362Z,23.92
2019-04-20T12:29:05.582Z,23.24
2019-04-20T12:31:35.739Z,23.03
2019-04-20T12:34:06.381Z,22.89
2019-04-20T12:36:37.351Z,22.95
2019-04-20T12:39:11.026Z,22.34
2019-04-20T12:41:48.043Z,22.02
2019-04-20T12:44:14.085Z,22.31
2019-04-20T12:46:45.758Z,22.95
2019-04-20T12:49:15.908Z,23.58
2019-04-20T12:51:53.738Z,23.51
2019-04-20T12:54:18.564Z,23.31
2019-04-20T12:56:48.805Z,22.76
2019-04-20T12:59:21.133Z,22.77
2019-04-20T13:01:51.427Z,22.35
2019-04-20T13:04:22.699Z,21.91
2019-04-20T13:06:55.215Z,22.71
2019-04-20T13:09:28.692Z,21.82
2019-04-20T13:12:15.512Z,20.66
2019-04-20T13:15:24.585Z,21.64
2019-04-20T13:17:54.612Z,22.31
2019-04-20T13:20:25.796Z,23.23
2019-04-20T13:22:57.090Z,22.07
2019-04-20T13:25:28.522Z,21.82
2019-04-20T13:27:58.993Z,20.56
2019-04-20T13:30:30.067Z,21.94
2019-04-20T13:33:01.456Z,21.20
2019-04-20T13:35:32.204Z,21.60
2019-04-20T13:38:04.564Z,21.30
2019-04-20T13:40:35.663Z,21.60
2019-04-20T13:43:05.932Z,21.06
2019-04-20T13:45:37.154Z,22.04
2019-04-20T13:48:07.251Z,21.29
2019-04-20T13:50:38.174Z,21.61
2019-04-20T13:53:09.631Z,21.77
2019-04-20T13:55:40.559Z,22.43
2019-04-20T13:58:33.871Z,20.97
2019-04-20T14:01:14.416Z,21.96
2019-04-20T14:03:44.989Z,21.01
2019-04-20T14:06:16.341Z,21.46
2019-04-20T14:08:47.384Z,20.64
2019-04-20T14:11:17.705Z,21.29
2019-04-20T14:13:54.744Z,22.36
2019-04-20T14:16:19.396Z,20.58
2019-04-20T14:18:49.471Z,20.96
2019-04-20T14:21:20.403Z,19.77
2019-04-20T14:23:50.836Z,20.37
2019-04-20T14:26:21.050Z,20.20
2019-04-20T14:28:51.279Z,20.48
2019-04-20T14:31:21.618Z,20.17
2019-04-20T14:33:52.791Z,19.52
2019-04-20T14:36:24.205Z,19.76
2019-04-20T14:38:54.414Z,20.12
2019-04-20T14:41:24.422Z,19.82
2019-04-20T14:43:55.484Z,20.46
2019-04-20T14:46:26.676Z,19.71
2019-04-20T14:48:57.072Z,18.85
2019-04-20T14:51:27.859Z,19.33
2019-04-20T14:53:59.150Z,19.06
2019-04-20T14:56:29.397Z,18.41
2019-04-20T14:59:02.613Z,18.42
2019-04-20T15:01:44.907Z,20.13
2019-04-20T15:04:18.552Z,19.78
2019-04-20T15:06:46.709Z,19.20
2019-04-20T15:09:16.927Z,19.21
2019-04-20T15:11:48.233Z,19.43
2019-04-20T15:14:38.654Z,18.29
2019-04-20T15:17:11.341Z,18.60
2019-04-20T15:19:57.245Z,19.22
2019-04-20T15:22:45.971Z,19.03
2019-04-20T15:25:16.104Z,19.20
2019-04-20T15:27:46.404Z,18.38
2019-04-20T15:30:18.342Z,17.82
2019-04-20T15:32:49.269Z,18.57
2019-04-20T15:35:21.110Z,17.87
2019-04-20T15:37:51.109Z,18.11
2019-04-20T15:40:21.296Z,17.75
2019-04-20T15:42:58.967Z,18.01
2019-04-20T15:45:23.318Z,18.47
2019-04-20T15:47:54.189Z,18.25
2019-04-20T15:50:25.689Z,18.01
2019-04-20T15:52:57.374Z,18.49
2019-04-20T15:55:33.943Z,18.32
2019-04-20T16:00:28.720Z,18.73
2019-04-20T16:03:21.419Z,18.86
2019-04-20T16:05:57.280Z,18.99
2019-04-20T16:08:30.253Z,18.26
2019-04-20T16:11:01.410Z,18.55
2019-04-20T16:13:37.600Z,17.98
2019-04-20T16:16:03.769Z,18.25
2019-04-20T16:18:35.074Z,18.22
2019-04-20T16:21:10.032Z,17.81
2019-04-20T16:24:08.926Z,17.68
2019-04-20T16:26:53.582Z,18.08
2019-04-20T16:29:23.959Z,18.40
2019-04-20T16:31:54.361Z,18.46
2019-04-20T16:34:25.377Z,18.19
2019-04-20T16:36:56.924Z,18.04
2019-04-20T16:39:28.286Z,18.26
2019-04-20T16:41:58.422Z,18.09
2019-04-20T16:44:29.324Z,17.86
2019-04-20T16:47:00.507Z,18.20
2019-04-20T16:49:30.702Z,18.42
2019-04-20T16:52:00.883Z,18.29
2019-04-20T16:54:32.021Z,18.56
2019-04-20T16:57:02.583Z,18.85
2019-04-20T16:59:40.174Z,18.50
2019-04-20T17:02:06.557Z,18.45
2019-04-20T17:04:37.715Z,18.55
2019-04-20T17:07:31.038Z,18.57
2019-04-20T17:10:02.300Z,18.60
2019-04-20T17:12:33.607Z,18.79
2019-04-20T17:15:05.861Z,18.66
2019-04-20T17:17:35.989Z,18.77
2019-04-20T17:20:07.452Z,19.07
2019-04-20T17:22:37.404Z,18.82
2019-04-20T17:25:10.147Z,19.04
2019-04-20T17:27:51.277Z,18.48
2019-04-20T17:30:47.225Z,18.79
2019-04-20T17:33:20.845Z,19.16
2019-04-20T17:35:57.274Z,19.66
2019-04-20T17:38:20.841Z,19.66
2019-04-20T17:41:02.889Z,19.97
2019-04-20T17:43:31.413Z,19.72
2019-04-20T17:46:02.780Z,20.19
2019-04-20T17:48:36.102Z,19.88
2019-04-20T17:51:16.810Z,20.15
2019-04-20T17:53:57.687Z,20.49
2019-04-20T17:56:24.610Z,21.04
2019-04-20T17:58:54.633Z,20.66
2019-04-20T18:02:02.194Z,21.13
2019-04-20T18:04:57.379Z,21.08
2019-04-20T18:07:09.754Z,21.17
2019-04-20T18:09:49.967Z,20.80
2019-04-20T18:12:03.359Z,20.87
2019-04-20T18:14:45.962Z,21.25
2019-04-20T18:17:29.356Z,21.95
2019-04-20T18:19:54.796Z,22.26
2019-04-20T18:22:25.757Z,22.73
2019-04-20T18:25:17.437Z,22.78
2019-04-20T18:27:43.962Z,23.05
2019-04-20T18:30:15.510Z,23.17
2019-04-20T18:32:35.721Z,23.12
2019-04-20T18:35:16.341Z,23.16
2019-04-20T18:37:52.516Z,23.58
2019-04-20T18:40:29.176Z,23.53
2019-04-20T18:42:56.636Z,23.65
2019-04-20T18:45:38.134Z,23.69
2019-04-20T18:48:11.774Z,24.38
2019-04-20T18:50:33.731Z,24.66
2019-04-20T18:52:57.947Z,25.26
2019-04-20T18:55:39.012Z,25.31
2019-04-20T18:57:59.704Z,25.85
2019-04-20T19:00:33.899Z,26.06
2019-04-20T19:03:11.136Z,25.74
2019-04-20T19:05:33.799Z,26.50
2019-04-20T19:08:09.367Z,26.84
2019-04-20T19:10:38.583Z,26.96
2019-04-20T19:13:22.426Z,26.29
2019-04-20T19:16:16.574Z,26.71
2019-04-20T19:18:54.674Z,27.08
2019-04-20T19:21:13.329Z,27.64
2019-04-20T19:23:53.522Z,27.68
2019-04-20T19:26:20.578Z,27.20
2019-04-20T19:28:52.497Z,27.50
2019-04-20T19:31:36.753Z,27.73
2019-04-20T19:34:16.764Z,28.49
2019-04-20T19:36:33.083Z,28.43
2019-04-20T19:39:10.599Z,28.99
2019-04-20T19:41:39.014Z,29.32
2019-04-20T19:44:10.006Z,29.31
2019-04-20T19:46:48.277Z,29.45
2019-04-20T19:49:11.269Z,29.51
2019-04-20T19:52:00.692Z,30.14
2019-04-20T19:54:24.094Z,30.92
2019-04-20T19:56:48.545Z,31.41
2019-04-20T19:59:19.501Z,31.42
2019-04-20T20:01:39.896Z,31.77
2019-04-20T20:04:11.551Z,31.79
2019-04-20T20:06:47.720Z,32.00
2019-04-20T20:09:16.107Z,32.40
2019-04-20T20:11:46.783Z,32.36
2019-04-20T20:14:17.945Z,32.51
2019-04-20T20:17:06.698Z,32.57
2019-04-20T20:19:38.535Z,32.55
2019-04-20T20:22:05.602Z,32.96
2019-04-20T20:24:23.348Z,33.18
2019-04-20T20:27:00.444Z,33.74
2019-04-20T20:29:34.041Z,34.35
2019-04-20T20:32:11.711Z,34.18
2019-04-20T20:34:36.382Z,34.53
2019-04-20T20:37:08.763Z,34.75
2019-04-20T20:39:35.128Z,34.86
2019-04-20T20:42:15.223Z,34.71
2019-04-20T20:44:45.587Z,34.61
2019-04-20T20:47:34.137Z,34.80
2019-04-20T20:50:08.239Z,34.80
2019-04-20T20:52:29.003Z,35.47
2019-04-20T20:54:56.440Z,35.53
2019-04-20T20:57:20.665Z,35.35
2019-04-20T20:59:55.515Z,35.73
2019-04-20T21:02:24.386Z,35.22
2019-04-20T21:04:51.443Z,36.17
2019-04-20T21:07:22.596Z,36.57
2019-04-20T21:09:52.527Z,36.81
2019-04-20T21:12:24.011Z,36.52
2019-04-20T21:14:55.205Z,36.32
2019-04-20T21:17:31.160Z,36.56
2019-04-20T21:20:12.629Z,36.69
2019-04-20T21:22:49.195Z,37.31
2019-04-20T21:25:01.101Z,37.94
2019-04-20T21:27:32.933Z,38.38
2019-04-20T21:30:03.959Z,37.94
2019-04-20T21:32:43.975Z,37.28
2019-04-20T21:35:11.029Z,37.59
2019-04-20T21:37:43.417Z,38.54
2019-04-20T21:40:23.530Z,38.93
2019-04-20T21:42:51.710Z,39.29
2019-04-20T21:45:23.026Z,39.23
2019-04-20T21:47:48.184Z,38.82
2019-04-20T21:50:34.447Z,38.23
2019-04-20T21:52:54.018Z,38.58
2019-04-20T21:55:21.908Z,38.12
2019-04-20T21:57:55.453Z,37.90
2019-04-20T22:00:46.031Z,37.68
2019-04-20T22:03:17.265Z,38.20
2019-04-20T22:05:48.476Z,38.14
2019-04-20T22:08:19.718Z,38.71
2019-04-20T22:10:50.269Z,39.04
2019-04-20T22:13:26.764Z,38.37
2019-04-20T22:15:58.526Z,39.65
2019-04-20T22:18:25.378Z,38.74
2019-04-20T22:21:05.910Z,39.55
2019-04-20T22:23:46.618Z,39.30
2019-04-20T22:26:14.565Z,40.00
2019-04-20T22:28:31.939Z,39.69
2019-04-20T22:31:02.265Z,40.54
2019-04-20T22:33:38.079Z,41.31
2019-04-20T22:36:09.449Z,42.15
2019-04-20T22:39:07.491Z,42.29
2019-04-20T22:41:46.688Z,42.73
2019-04-20T22:44:19.370Z,45.29
2019-04-20T22:46:47.684Z,44.91
2019-04-20T22:49:36.314Z,44.56
2019-04-20T22:51:58.123Z,44.84
2019-04-20T22:54:38.043Z,45.41
2019-04-20T22:57:03.417Z,45.36
2019-04-20T22:59:37.438Z,45.02
2019-04-20T23:01:59.898Z,45.81
2019-04-20T23:04:29.015Z,46.25
2019-04-20T23:06:59.212Z,45.86
2019-04-20T23:09:32.835Z,46.05
2019-04-20T23:12:09.172Z,46.79
2019-04-20T23:14:32.378Z,46.70
2019-04-20T23:17:02.341Z,47.02
2019-04-20T23:19:42.878Z,47.28
2019-04-20T23:22:08.453Z,46.76
2019-04-20T23:24:35.504Z,46.93
2019-04-20T23:27:16.374Z,46.77
2019-04-20T23:29:40.064Z,46.93
2019-04-20T23:32:11.896Z,47.76
2019-04-20T23:34:40.950Z,47.69
2019-04-20T23:37:17.058Z,47.47
2019-04-20T23:39:44.979Z,47.97
2019-04-20T23:42:19.720Z,47.77
2019-04-20T23:45:01.704Z,47.57
2019-04-20T23:47:47.876Z,47.54
2019-04-20T23:50:35.758Z,47.57
2019-04-20T23:53:06.707Z,47.05
2019-04-20T23:55:19.004Z,46.23
2019-04-20T23:57:55.878Z,46.36
